createdAt,value
2022-11-25T00:01:15.429Z,60.78
2022-11-25T00:03:43.359Z,58.97
2022-11-25T00:06:34.882Z,55.67
2022-11-25T00:09:11.911Z,53.75
2022-11-25T00:11:41.077Z,54.45
2022-11-25T00:14:12.057Z,55.42
2022-11-25T00:16:42.600Z,56.63
2022-11-25T00:19:13.834Z,43.58
2022-11-25T00:21:40.865Z,51.78
2022-11-25T00:24:08.059Z,52.85
2022-11-25T00:26:36.568Z,50.15
2022-11-25T00:29:06.484Z,54.78
2022-11-25T00:31:36.076Z,52.07
2022-11-25T00:34:03.698Z,48.90
2022-11-25T00:36:35.746Z,54.63
2022-11-25T00:39:27.142Z,51.87
2022-11-25T00:42:14.005Z,52.17
2022-11-25T00:44:41.649Z,50.55
2022-11-25T00:47:29.612Z,55.40
2022-11-25T00:49:56.570Z,54.10
2022-11-25T00:52:25.357Z,54.55
2022-11-25T00:54:53.138Z,55.50
2022-11-25T00:57:22.525Z,55.90
2022-11-25T00:59:49.600Z,59.15
2022-11-25T01:02:17.969Z,60.55
2022-11-25T01:04:45.459Z,56.13
2022-11-25T01:07:12.759Z,55.27
2022-11-25T01:09:39.748Z,57.45
2022-11-25T01:12:06.799Z,57.83
2022-11-25T01:14:35.053Z,56.10
2022-11-25T01:17:02.500Z,55.95
2022-11-25T01:19:29.490Z,53.13
2022-11-25T01:21:56.540Z,54.85
2022-11-25T01:24:24.277Z,54.53
2022-11-25T01:26:51.405Z,51.42
2022-11-25T01:29:19.519Z,51.47
2022-11-25T01:31:48.565Z,50.45
2022-11-25T01:34:19.786Z,51.45
2022-11-25T01:36:47.690Z,50.40
2022-11-25T01:39:20.317Z,47.50
2022-11-25T01:41:48.269Z,49.35
2022-11-25T01:44:36.379Z,50.00
2022-11-25T01:47:24.546Z,49.88
2022-11-25T01:50:13.062Z,47.40
2022-11-25T01:52:45.699Z,50.25
2022-11-25T01:55:20.312Z,47.80
2022-11-25T01:57:53.953Z,49.42
2022-11-25T02:00:21.796Z,47.80
2022-11-25T02:02:50.721Z,52.70
2022-11-25T02:05:21.873Z,51.50
2022-11-25T02:07:51.310Z,49.38
2022-11-25T02:10:24.331Z,53.28
2022-11-25T02:12:52.796Z,53.30
2022-11-25T02:15:20.703Z,55.67
2022-11-25T02:17:47.857Z,51.67
2022-11-25T02:20:18.641Z,47.80
2022-11-25T02:23:26.015Z,55.17
2022-11-25T02:25:54.664Z,54.60
2022-11-25T02:28:27.966Z,53.72
2022-11-25T02:30:55.137Z,53.60
2022-11-25T02:33:22.121Z,58.83
2022-11-25T02:35:54.775Z,62.37
2022-11-25T02:38:43.563Z,52.97
2022-11-25T02:41:17.694Z,61.97
2022-11-25T02:43:45.168Z,59.78
2022-11-25T02:46:20.373Z,53.60
2022-11-25T02:51:36.733Z,55.08
2022-11-25T02:54:03.823Z,50.42
2022-11-25T02:56:33.614Z,50.00
2022-11-25T02:59:00.872Z,59.50
2022-11-25T03:01:28.308Z,57.00
2022-11-25T03:03:55.492Z,54.67
2022-11-25T03:06:22.476Z,58.33
2022-11-25T03:08:49.505Z,59.17
2022-11-25T03:11:16.650Z,58.30
2022-11-25T03:13:44.044Z,67.13
2022-11-25T03:16:11.124Z,66.90
2022-11-25T03:18:38.204Z,71.30
2022-11-25T03:21:05.362Z,71.03
2022-11-25T03:23:32.440Z,67.43
2022-11-25T03:25:59.481Z,70.68
2022-11-25T03:28:26.477Z,78.25
2022-11-25T03:30:53.500Z,81.97
2022-11-25T03:33:20.489Z,86.87
2022-11-25T03:35:49.241Z,65.63
2022-11-25T03:38:16.185Z,71.60
2022-11-25T03:40:43.197Z,64.53
2022-11-25T03:43:10.130Z,65.53
2022-11-25T03:45:37.170Z,62.07
2022-11-25T03:48:05.085Z,69.38
2022-11-25T03:50:32.078Z,66.55
2022-11-25T03:52:59.053Z,65.00
2022-11-25T03:55:26.125Z,70.53
2022-11-25T03:57:53.149Z,70.93
2022-11-25T04:00:20.422Z,59.43
2022-11-25T04:02:47.571Z,60.90
2022-11-25T04:05:14.756Z,62.70
2022-11-25T04:07:41.792Z,66.60
2022-11-25T04:10:09.604Z,66.30
2022-11-25T04:12:52.656Z,66.53
2022-11-25T04:15:20.056Z,60.33
2022-11-25T04:17:47.069Z,66.50
2022-11-25T04:20:15.396Z,62.42
2022-11-25T04:22:42.743Z,68.07
2022-11-25T04:25:10.298Z,61.65
2022-11-25T04:27:37.288Z,60.30
2022-11-25T04:30:05.483Z,63.83
2022-11-25T04:32:32.504Z,80.23
2022-11-25T04:34:59.567Z,59.85
2022-11-25T04:37:26.592Z,52.92
2022-11-25T04:39:53.648Z,61.65
2022-11-25T04:42:37.962Z,57.03
2022-11-25T04:45:24.419Z,54.50
2022-11-25T04:47:51.969Z,55.90
2022-11-25T04:50:21.943Z,58.95
2022-11-25T04:52:49.585Z,58.10
2022-11-25T04:55:16.886Z,61.00
2022-11-25T04:57:43.896Z,56.07
2022-11-25T05:00:12.184Z,59.20
2022-11-25T05:02:39.328Z,55.53
2022-11-25T05:05:07.327Z,58.50
2022-11-25T05:07:34.344Z,58.40
2022-11-25T05:10:01.495Z,56.27
2022-11-25T05:12:29.679Z,56.90
2022-11-25T05:14:57.576Z,62.40
2022-11-25T05:17:27.745Z,54.10
2022-11-25T05:19:54.958Z,53.97
2022-11-25T05:22:25.129Z,59.33
2022-11-25T05:24:53.540Z,53.25
2022-11-25T05:27:21.339Z,51.53
2022-11-25T05:29:54.323Z,52.00
2022-11-25T05:32:22.838Z,50.05
2022-11-25T05:34:49.875Z,47.47
2022-11-25T05:37:22.734Z,45.80
2022-11-25T05:39:51.467Z,41.80
2022-11-25T05:42:18.459Z,44.83
2022-11-25T05:44:45.452Z,40.00
2022-11-25T05:47:12.511Z,35.40
2022-11-25T05:49:39.621Z,39.92
2022-11-25T05:52:06.702Z,41.85
2022-11-25T05:54:33.912Z,41.65
2022-11-25T05:57:00.911Z,36.03
2022-11-25T05:59:28.033Z,36.33
2022-11-25T06:01:56.536Z,42.88
2022-11-25T06:04:23.519Z,41.45
2022-11-25T06:06:50.562Z,39.57
2022-11-25T06:09:17.571Z,42.05
2022-11-25T06:11:44.548Z,39.72
2022-11-25T06:14:11.587Z,40.35
2022-11-25T06:16:38.662Z,44.97
2022-11-25T06:19:06.825Z,43.25
2022-11-25T06:21:34.389Z,41.58
2022-11-25T06:24:01.577Z,41.83
2022-11-25T06:26:28.710Z,43.25
2022-11-25T06:28:56.897Z,42.83
2022-11-25T06:31:25.840Z,46.50
2022-11-25T06:33:53.980Z,43.22
2022-11-25T06:36:22.501Z,44.88
2022-11-25T06:38:53.494Z,43.53
2022-11-25T06:41:22.131Z,40.55
2022-11-25T06:43:49.403Z,44.60
2022-11-25T06:46:23.085Z,42.33
2022-11-25T06:48:51.461Z,41.38
2022-11-25T06:51:21.600Z,42.78
2022-11-25T06:53:48.689Z,39.55
2022-11-25T06:56:18.669Z,41.92
2022-11-25T06:58:47.015Z,39.80
2022-11-25T07:01:18.297Z,41.65
2022-11-25T07:03:46.808Z,40.72
2022-11-25T07:06:18.234Z,38.22
2022-11-25T07:08:46.289Z,45.95
2022-11-25T07:11:20.056Z,45.83
2022-11-25T07:13:48.472Z,43.58
2022-11-25T07:16:15.725Z,46.58
2022-11-25T07:18:43.089Z,44.65
2022-11-25T07:21:14.718Z,45.60
2022-11-25T07:23:43.438Z,40.92
2022-11-25T07:26:13.297Z,46.63
2022-11-25T07:28:40.717Z,48.53
2022-11-25T07:31:32.715Z,45.55
2022-11-25T07:34:04.598Z,50.60
2022-11-25T07:36:33.647Z,45.58
2022-11-25T07:39:02.845Z,46.13
2022-11-25T07:41:33.395Z,43.90
2022-11-25T07:44:04.113Z,81.85
2022-11-25T07:46:51.721Z,52.38
2022-11-25T07:49:21.606Z,47.88
2022-11-25T07:52:09.386Z,47.58
2022-11-25T07:54:36.437Z,46.13
2022-11-25T07:57:03.537Z,47.40
2022-11-25T07:59:30.565Z,43.13
2022-11-25T08:01:57.703Z,44.17
2022-11-25T08:04:24.950Z,45.47
2022-11-25T08:06:53.066Z,42.57
2022-11-25T08:09:22.854Z,48.13
2022-11-25T08:11:50.430Z,45.20
2022-11-25T08:14:18.125Z,40.40
2022-11-25T08:16:45.479Z,37.30
2022-11-25T08:19:15.031Z,40.08
2022-11-25T08:21:42.632Z,41.63
2022-11-25T08:24:16.004Z,40.75
2022-11-25T08:26:43.275Z,40.93
2022-11-25T08:29:14.560Z,38.27
2022-11-25T08:31:42.835Z,43.07
2022-11-25T08:34:12.171Z,41.53
2022-11-25T08:36:42.543Z,41.50
2022-11-25T08:39:36.177Z,41.47
2022-11-25T08:42:04.603Z,43.17
2022-11-25T08:44:31.700Z,46.38
2022-11-25T08:46:58.932Z,46.10
2022-11-25T08:49:27.119Z,44.67
2022-11-25T08:51:54.238Z,43.27
2022-11-25T08:54:21.338Z,43.30
2022-11-25T08:56:48.395Z,45.33
2022-11-25T08:59:15.425Z,45.97
2022-11-25T09:01:42.533Z,54.22
2022-11-25T09:04:09.607Z,55.30
2022-11-25T09:06:36.624Z,55.37
2022-11-25T09:09:06.110Z,49.70
2022-11-25T09:11:33.243Z,43.07
2022-11-25T09:14:00.468Z,42.93
2022-11-25T09:16:28.443Z,40.63
2022-11-25T09:18:56.462Z,43.50
2022-11-25T09:21:25.194Z,38.10
2022-11-25T09:23:54.248Z,41.83
2022-11-25T09:26:25.945Z,42.73
2022-11-25T09:28:53.683Z,38.27
2022-11-25T09:31:21.726Z,40.73
2022-11-25T09:33:48.851Z,41.43
2022-11-25T09:36:17.908Z,41.13
2022-11-25T09:38:45.109Z,43.07
2022-11-25T09:42:11.715Z,35.77
2022-11-25T09:45:38.435Z,34.40
2022-11-25T09:48:36.461Z,38.58
2022-11-25T09:51:24.471Z,40.15
2022-11-25T09:53:56.847Z,36.67
2022-11-25T09:57:03.618Z,38.67
2022-11-25T10:00:10.628Z,35.83
2022-11-25T10:03:17.476Z,42.53
2022-11-25T10:05:56.856Z,40.00
2022-11-25T10:08:29.243Z,48.83
2022-11-25T10:11:07.783Z,43.88
2022-11-25T10:14:03.493Z,41.83
2022-11-25T10:16:55.153Z,43.22
2022-11-25T10:20:01.929Z,39.83
2022-11-25T10:22:34.259Z,42.28
2022-11-25T10:25:12.510Z,42.55
2022-11-25T10:27:49.259Z,43.93
2022-11-25T10:30:38.929Z,39.83
2022-11-25T10:33:19.334Z,42.77
2022-11-25T10:36:26.059Z,40.63
2022-11-25T10:42:12.839Z,39.17
2022-11-25T10:44:41.909Z,39.37
2022-11-25T10:47:49.221Z,40.30
2022-11-25T10:50:40.976Z,41.63
2022-11-25T10:53:30.236Z,41.40
2022-11-25T10:56:19.161Z,43.07
2022-11-25T10:58:47.253Z,41.47
2022-11-25T11:01:22.379Z,48.07
2022-11-25T11:04:03.825Z,49.15
2022-11-25T11:06:54.306Z,36.77
2022-11-25T11:09:41.182Z,38.53
2022-11-25T11:12:34.257Z,39.07
2022-11-25T11:15:22.526Z,39.90
2022-11-25T11:17:50.226Z,41.00
2022-11-25T11:20:24.427Z,41.87
2022-11-25T11:23:15.694Z,38.27
2022-11-25T11:25:54.325Z,38.23
2022-11-25T11:28:41.990Z,44.77
2022-11-25T11:31:39.389Z,56.07
2022-11-25T11:34:46.216Z,38.13
2022-11-25T11:37:41.249Z,38.93
2022-11-25T11:40:44.821Z,38.67
2022-11-25T11:43:39.067Z,40.20
2022-11-25T11:46:34.266Z,37.70
2022-11-25T11:49:41.040Z,40.17
2022-11-25T11:52:47.780Z,42.47
2022-11-25T11:55:43.407Z,40.83
2022-11-25T11:58:50.457Z,39.65
2022-11-25T12:01:57.279Z,39.43
2022-11-25T12:04:38.038Z,39.90
2022-11-25T12:07:15.336Z,41.07
2022-11-25T12:09:52.836Z,43.20
2022-11-25T12:12:22.757Z,45.27
2022-11-25T12:15:16.680Z,48.63
2022-11-25T12:17:51.723Z,41.43
2022-11-25T12:20:59.739Z,42.72
2022-11-25T12:27:22.357Z,42.87
2022-11-25T12:30:20.877Z,42.90
2022-11-25T12:33:13.236Z,39.77
2022-11-25T12:39:33.777Z,43.50
2022-11-25T12:42:12.629Z,41.73
2022-11-25T12:45:12.465Z,40.90
2022-11-25T12:47:39.622Z,39.77
2022-11-25T12:50:14.467Z,40.20
2022-11-25T12:53:01.988Z,38.40
2022-11-25T12:55:30.890Z,39.10
2022-11-25T12:58:37.702Z,40.80
2022-11-25T13:01:32.622Z,40.27
2022-11-25T13:04:29.894Z,38.00
2022-11-25T13:07:22.378Z,42.30
2022-11-25T13:10:29.125Z,45.30
2022-11-25T13:13:36.106Z,45.20
2022-11-25T13:16:06.760Z,47.47
2022-11-25T13:18:37.863Z,48.07
2022-11-25T13:21:08.475Z,48.13
2022-11-25T13:24:03.977Z,51.90
2022-11-25T13:26:45.626Z,54.55
2022-11-25T13:29:52.403Z,58.23
2022-11-25T13:32:40.663Z,57.90
2022-11-25T13:35:31.404Z,52.40
2022-11-25T13:37:58.875Z,47.50
2022-11-25T13:40:56.201Z,51.03
2022-11-25T13:44:03.084Z,45.13
2022-11-25T13:46:52.732Z,44.30
2022-11-25T13:49:56.205Z,44.40
2022-11-25T13:52:47.162Z,47.50
2022-11-25T13:55:35.887Z,38.63
2022-11-25T13:58:19.927Z,38.07
2022-11-25T14:01:26.318Z,38.67
2022-11-25T14:04:00.397Z,38.13
2022-11-25T14:07:07.290Z,41.40
2022-11-25T14:10:14.209Z,41.63
2022-11-25T14:13:16.194Z,46.00
2022-11-25T14:16:23.043Z,50.30
2022-11-25T14:19:50.589Z,49.37
2022-11-25T14:22:56.577Z,44.42
2022-11-25T14:25:27.178Z,49.10
2022-11-25T14:28:08.964Z,51.23
2022-11-25T14:30:50.337Z,47.47
2022-11-25T14:33:26.694Z,47.00
2022-11-25T14:36:00.766Z,45.23
2022-11-25T14:38:38.425Z,48.50
2022-11-25T14:41:11.477Z,51.47
2022-11-25T14:43:43.507Z,48.03
2022-11-25T14:46:30.913Z,49.43
2022-11-25T14:49:00.487Z,50.83
2022-11-25T14:51:34.185Z,50.13
2022-11-25T14:54:01.777Z,51.97
2022-11-25T14:56:32.735Z,52.60
2022-11-25T14:59:00.692Z,58.90
2022-11-25T15:01:48.740Z,55.87
2022-11-25T15:04:22.270Z,58.87
2022-11-25T15:06:52.616Z,63.00
2022-11-25T15:09:27.549Z,56.17
2022-11-25T15:12:17.914Z,59.60
2022-11-25T15:14:51.545Z,58.33
2022-11-25T15:17:28.151Z,60.43
2022-11-25T15:19:57.861Z,62.47
2022-11-25T15:22:25.539Z,67.10
2022-11-25T15:24:56.462Z,67.90
2022-11-25T15:27:45.670Z,66.43
2022-11-25T15:30:30.333Z,69.50
2022-11-25T15:32:57.665Z,68.37
2022-11-25T15:35:26.952Z,80.07
2022-11-25T15:37:54.525Z,76.47
2022-11-25T15:40:43.268Z,72.17
2022-11-25T15:43:30.400Z,74.13
2022-11-25T15:46:02.435Z,69.77
2022-11-25T15:48:39.024Z,70.37
2022-11-25T15:51:34.385Z,67.40
2022-11-25T15:54:41.184Z,68.72
2022-11-25T15:57:37.385Z,66.73
2022-11-25T16:03:18.404Z,91.20
2022-11-25T16:05:54.667Z,81.43
2022-11-25T16:08:54.348Z,77.00
2022-11-25T16:11:25.124Z,78.13
2022-11-25T16:13:53.303Z,83.43
2022-11-25T16:16:36.549Z,76.33
2022-11-25T16:19:26.631Z,73.90
2022-11-25T16:21:59.140Z,70.07
2022-11-25T16:24:50.790Z,71.17
2022-11-25T16:27:38.401Z,67.00
2022-11-25T16:30:26.260Z,65.43
2022-11-25T16:33:04.904Z,64.47
2022-11-25T16:35:31.955Z,64.80
2022-11-25T16:37:58.963Z,62.40
2022-11-25T16:40:28.035Z,63.17
2022-11-25T16:42:55.187Z,58.33
2022-11-25T16:45:24.867Z,57.23
2022-11-25T16:47:52.194Z,55.40
2022-11-25T16:50:21.090Z,60.13
2022-11-25T16:52:48.340Z,58.43
2022-11-25T16:55:15.605Z,63.80
2022-11-25T16:57:43.335Z,62.73
2022-11-25T17:00:17.147Z,66.47
2022-11-25T17:02:45.088Z,57.63
2022-11-25T17:05:32.122Z,55.30
2022-11-25T17:07:59.173Z,57.37
2022-11-25T17:10:27.150Z,62.70
2022-11-25T17:12:55.560Z,66.60
2022-11-25T17:15:32.444Z,64.50
2022-11-25T17:18:01.000Z,61.43
2022-11-25T17:20:28.145Z,63.27
2022-11-25T17:22:55.862Z,65.10
2022-11-25T17:25:23.588Z,68.03
2022-11-25T17:27:51.769Z,80.27
2022-11-25T17:30:39.158Z,79.30
2022-11-25T17:33:11.557Z,77.23
2022-11-25T17:35:38.563Z,86.43
2022-11-25T17:38:12.922Z,78.43
2022-11-25T17:40:41.293Z,82.97
2022-11-25T17:43:14.426Z,78.53
2022-11-25T17:45:42.463Z,77.53
2022-11-25T17:48:17.999Z,78.83
2022-11-25T17:50:45.557Z,71.80
2022-11-25T17:53:12.612Z,70.30
2022-11-25T17:55:40.940Z,71.63
2022-11-25T17:58:12.120Z,74.23
2022-11-25T18:00:41.902Z,75.47
2022-11-25T18:03:12.462Z,65.53
2022-11-25T18:05:39.610Z,68.57
2022-11-25T18:08:06.722Z,74.20
2022-11-25T18:10:34.618Z,76.10
2022-11-25T18:13:03.085Z,81.20
2022-11-25T18:15:34.155Z,74.07
2022-11-25T18:18:06.212Z,80.37
2022-11-25T18:20:39.582Z,79.35
2022-11-25T18:23:09.695Z,77.30
2022-11-25T18:25:39.309Z,69.78
2022-11-25T18:28:07.326Z,74.78
2022-11-25T18:30:36.444Z,62.90
2022-11-25T18:33:06.343Z,60.20
2022-11-25T18:35:36.535Z,56.67
2022-11-25T18:38:04.393Z,61.60
2022-11-25T18:40:31.701Z,59.23
2022-11-25T18:43:01.531Z,58.90
2022-11-25T18:45:33.302Z,60.93
2022-11-25T18:48:00.659Z,58.90
2022-11-25T18:50:28.380Z,59.67
2022-11-25T18:52:55.427Z,59.17
2022-11-25T18:55:23.653Z,64.00
2022-11-25T18:57:52.118Z,61.60
2022-11-25T19:00:32.115Z,63.50
2022-11-25T19:03:00.097Z,58.23
2022-11-25T19:05:31.224Z,58.43
2022-11-25T19:07:59.977Z,60.17
2022-11-25T19:10:30.919Z,67.27
2022-11-25T19:13:01.660Z,68.83
2022-11-25T19:15:28.797Z,70.53
2022-11-25T19:17:59.722Z,77.90
2022-11-25T19:20:28.573Z,66.13
2022-11-25T19:23:00.636Z,67.83
2022-11-25T19:25:28.878Z,65.40
2022-11-25T19:28:00.415Z,63.47
2022-11-25T19:30:31.239Z,63.23
2022-11-25T19:33:01.311Z,56.03
2022-11-25T19:35:37.880Z,63.40
2022-11-25T19:38:15.557Z,57.73
2022-11-25T19:40:42.691Z,57.10
2022-11-25T19:43:09.876Z,62.13
2022-11-25T19:45:37.482Z,64.20
2022-11-25T19:48:08.691Z,59.93
2022-11-25T19:50:38.947Z,55.27
2022-11-25T19:53:07.115Z,63.50
2022-11-25T19:55:34.231Z,57.17
2022-11-25T19:58:01.412Z,57.97
2022-11-25T20:00:28.450Z,125.17
2022-11-25T20:02:56.480Z,67.57
2022-11-25T20:05:33.643Z,60.07
2022-11-25T20:08:01.064Z,59.47
2022-11-25T20:10:30.527Z,59.07
2022-11-25T20:12:57.992Z,53.83
2022-11-25T20:15:31.842Z,64.73
2022-11-25T20:18:01.436Z,60.40
2022-11-25T20:20:35.640Z,60.83
2022-11-25T20:23:12.544Z,57.80
2022-11-25T20:25:44.746Z,63.67
2022-11-25T20:28:30.257Z,57.73
2022-11-25T20:31:00.238Z,56.92
2022-11-25T20:33:31.248Z,58.50
2022-11-25T20:36:04.785Z,64.77
2022-11-25T20:38:33.891Z,73.10
2022-11-25T20:41:01.555Z,61.60
2022-11-25T20:43:34.542Z,70.65
2022-11-25T20:46:03.188Z,66.20
2022-11-25T20:48:30.654Z,78.93
2022-11-25T20:51:02.534Z,75.30
2022-11-25T20:53:32.234Z,78.13
2022-11-25T20:56:00.324Z,79.10
2022-11-25T20:58:30.678Z,79.47
2022-11-25T21:00:58.636Z,79.47
2022-11-25T21:03:26.745Z,72.83
2022-11-25T21:05:58.269Z,73.35
2022-11-25T21:08:29.131Z,71.47
2022-11-25T21:11:00.435Z,67.47
2022-11-25T21:13:32.713Z,71.77
2022-11-25T21:16:00.052Z,64.43
2022-11-25T21:18:27.640Z,71.18
2022-11-25T21:21:04.282Z,73.80
2022-11-25T21:23:35.423Z,71.23
2022-11-25T21:26:08.009Z,70.90
2022-11-25T21:28:42.955Z,76.30
2022-11-25T21:31:23.233Z,75.90
2022-11-25T21:33:51.140Z,76.20
2022-11-25T21:36:24.261Z,79.20
2022-11-25T21:39:02.438Z,77.47
2022-11-25T21:41:29.783Z,75.15
2022-11-25T21:43:57.121Z,74.32
2022-11-25T21:46:28.833Z,77.50
2022-11-25T21:48:56.252Z,68.83
2022-11-25T21:51:24.558Z,73.63
2022-11-25T21:53:57.363Z,72.80
2022-11-25T21:56:28.453Z,69.83
2022-11-25T21:59:00.091Z,66.87
2022-11-25T22:01:27.783Z,67.73
2022-11-25T22:03:56.240Z,66.80
2022-11-25T22:06:28.056Z,68.17
2022-11-25T22:09:00.630Z,65.10
2022-11-25T22:11:39.852Z,77.93
2022-11-25T22:14:29.633Z,73.23
2022-11-25T22:16:57.602Z,80.57
2022-11-25T22:19:27.987Z,78.00
2022-11-25T22:21:55.884Z,74.40
2022-11-25T22:24:38.298Z,70.47
2022-11-25T22:27:07.745Z,72.57
2022-11-25T22:29:36.828Z,69.80
2022-11-25T22:32:08.231Z,70.20
2022-11-25T22:34:38.568Z,55.28
2022-11-25T22:37:18.095Z,75.70
2022-11-25T22:39:48.849Z,72.10
2022-11-25T22:42:39.376Z,74.63
2022-11-25T22:45:22.663Z,71.27
2022-11-25T22:47:49.869Z,65.80
2022-11-25T22:50:28.935Z,71.43
2022-11-25T22:52:57.319Z,71.63
2022-11-25T22:55:27.106Z,77.23
2022-11-25T22:57:56.556Z,74.73
2022-11-25T23:00:45.474Z,70.67
2022-11-25T23:03:36.800Z,69.37
2022-11-25T23:06:05.565Z,75.50
2022-11-25T23:08:32.692Z,72.63
2022-11-25T23:10:59.869Z,78.20
2022-11-25T23:13:26.965Z,77.33
2022-11-25T23:16:15.147Z,75.67
2022-11-25T23:18:45.858Z,72.77
2022-11-25T23:21:24.158Z,77.80
2022-11-25T23:23:51.653Z,87.17
2022-11-25T23:26:18.751Z,91.25
2022-11-25T23:28:48.589Z,95.33
2022-11-25T23:31:17.209Z,89.63
2022-11-25T23:34:05.616Z,85.60
2022-11-25T23:36:44.796Z,82.00
2022-11-25T23:39:19.111Z,94.63
2022-11-25T23:41:46.200Z,91.10
2022-11-25T23:44:33.110Z,91.57
2022-11-25T23:47:03.751Z,91.37
2022-11-25T23:49:51.657Z,83.83
2022-11-25T23:52:22.740Z,85.43
2022-11-25T23:54:51.570Z,84.88
2022-11-25T23:57:39.779Z,80.78
